Portada
METAR-TAF:

METAR-TAF

Aeroports :

Aeroport de Berlín-Tegel

Berlín, Alemanya

latitud: 52-34N, longitud: 013-19E, altitud: 37 m

Observació

L'informe es va fer fa 20 minuts, a les 04:20 UTC
Vent 4 kt del Oest
Temperatura 4°C
Humitat 100%
Pressió 1027 hPa
Visibilitat 10 km o més
Cel ennuvolat a una alçada de 3900 ft

METAR: EDDT 200420Z 27004KT 9999 BKN039 04/04 Q1027 NOSIG

Hora: 06:40 (04:40 UTC)

Pronòstic

L'informe es va fer fa 5 hores i 40 minuts, a les 23:00 UTC
Pronòstic vàlid del 20 a les 00 UTC al 20 a les 24 UTC
Vent 3 kt amb direcció variable
Visibilitat: 8000 m
Núvols disperses a una alçada de 3000 ft
Probabilitat 30% :
Temporalment
l' 20 a les 01 UTC al 20 a les 07 UTC
Visibilitat: 2500 m
boira en bancs
Evolucionant progressivament
l' 20 a les 06 UTC al 20 a les 09 UTC
Vent 6 kt del Oest

TAF: EDDT 192300Z 2000/2024 VRB03KT 8000 SCT030 PROB30 TEMPO 2001/2007 2500 BCFG BECMG 2006/2009 27006KT

Observacions i pronòstics meteorològics de més de 4000 aeroports (METAR i TAF).

Les estacions disponibles són els punts grocs i vermells al mapa.

Posi el ratolí al punt desitjat per veure el nom de l'estació.

Feu clic per veure les observacions i els pronòstics meteorològics.

Per canviar el mapa: feu clic els botons verds amb una creu de color negre per apropar; al botó verd amb un guió per allunyar la imatge; o en les fletxes verdes per a mapes adjacents.


METAR-TAF: